Arthur, Illinois
Current Conditions -  °F | °C
As of 11:53 PM on Sunday 19 Oct 2014 (Local Time) from KMTO Reporting Station
Overcast Overcast  
Wind Chill:   Ceiling: 10000
Heat Index:   Visibility: 10mi
Dew Point:   Wind: 8mph
Humidity: 80%   Direction: 180°S
Pressure: 30.01"   Gusts: NA
Location:  39.71°N, 88.47°W
Report Text: KMTO 200453Z AUTO 18007KT 10SM OVC100 09/06 A3001 RMK AO2 SLP164 T00940061
Loading
Personal Weather Stations






























Interactive Weather Map
Tropical Storm Tracking
New forecast layout! Learn more

10-Day Weather Forecast

Advertisements
Track Severe Weather on mobile